createdAt,value
2019-03-22T00:00:31.274Z,10.80
2019-03-22T00:03:02.265Z,10.80
2019-03-22T00:05:32.728Z,10.70
2019-03-22T00:08:03.430Z,10.70
2019-03-22T00:10:34.133Z,10.70
2019-03-22T00:13:04.889Z,10.70
2019-03-22T00:15:35.428Z,10.70
2019-03-22T00:18:06.149Z,10.70
2019-03-22T00:20:36.809Z,10.70
2019-03-22T00:23:07.340Z,10.70
2019-03-22T00:25:38.050Z,10.70
2019-03-22T00:28:08.769Z,10.70
2019-03-22T00:30:39.406Z,10.60
2019-03-22T00:33:10.524Z,10.60
2019-03-22T00:35:41.245Z,10.60
2019-03-22T00:38:11.807Z,10.60
2019-03-22T00:40:44.290Z,10.60
2019-03-22T00:43:14.902Z,10.60
2019-03-22T00:45:45.614Z,10.60
2019-03-22T00:48:16.237Z,10.60
2019-03-22T00:50:46.976Z,10.60
2019-03-22T00:53:17.533Z,10.60
2019-03-22T00:55:49.963Z,10.60
2019-03-22T00:58:21.634Z,10.60
2019-03-22T01:00:52.625Z,10.60
2019-03-22T01:03:23.151Z,10.60
2019-03-22T01:05:53.818Z,10.60
2019-03-22T01:08:24.761Z,10.60
2019-03-22T01:10:55.487Z,10.60
2019-03-22T01:13:26.170Z,10.60
2019-03-22T01:15:58.065Z,10.60
2019-03-22T01:18:28.789Z,10.60
2019-03-22T01:20:59.546Z,10.60
2019-03-22T01:23:30.271Z,10.60
2019-03-22T01:26:01.021Z,10.60
2019-03-22T01:28:31.607Z,10.60
2019-03-22T01:31:02.194Z,10.60
2019-03-22T01:33:32.852Z,10.60
2019-03-22T01:36:03.483Z,10.60
2019-03-22T01:38:34.144Z,10.60
2019-03-22T01:41:04.843Z,10.60
2019-03-22T01:43:35.785Z,10.60
2019-03-22T01:46:06.487Z,10.50
2019-03-22T01:48:37.144Z,10.60
2019-03-22T01:51:07.836Z,10.50
2019-03-22T01:53:38.403Z,10.50
2019-03-22T01:56:09.055Z,10.50
2019-03-22T01:58:39.543Z,10.40
2019-03-22T02:01:10.103Z,10.40
2019-03-22T02:03:40.803Z,10.50
2019-03-22T02:06:11.454Z,10.50
2019-03-22T02:08:41.955Z,10.50
2019-03-22T02:11:12.469Z,10.50
2019-03-22T02:13:43.123Z,10.40
2019-03-22T02:16:13.720Z,10.40
2019-03-22T02:18:44.543Z,10.40
2019-03-22T02:21:15.199Z,10.40
2019-03-22T02:23:45.916Z,10.40
2019-03-22T02:26:16.544Z,10.40
2019-03-22T02:28:47.211Z,10.40
2019-03-22T02:31:18.093Z,10.40
2019-03-22T02:33:48.593Z,10.40
2019-03-22T02:36:19.205Z,10.40
2019-03-22T02:38:49.882Z,10.40
2019-03-22T02:41:20.477Z,10.40
2019-03-22T02:43:54.432Z,10.30
2019-03-22T02:46:23.490Z,10.40
2019-03-22T02:48:54.358Z,10.40
2019-03-22T02:51:24.915Z,10.40
2019-03-22T02:53:55.615Z,10.40
2019-03-22T02:56:26.224Z,10.30
2019-03-22T02:58:59.340Z,10.30
2019-03-22T03:01:29.411Z,10.30
2019-03-22T03:04:00.022Z,10.30
2019-03-22T03:06:30.685Z,10.30
2019-03-22T03:09:01.419Z,10.30
2019-03-22T03:11:33.620Z,10.30
2019-03-22T03:14:04.322Z,10.30
2019-03-22T03:16:34.956Z,10.30
2019-03-22T03:19:05.647Z,10.30
2019-03-22T03:21:36.362Z,10.30
2019-03-22T03:24:07.046Z,10.30
2019-03-22T03:26:37.717Z,10.30
2019-03-22T03:29:08.323Z,10.30
2019-03-22T03:31:39.046Z,10.20
2019-03-22T03:34:09.706Z,10.20
2019-03-22T03:36:40.373Z,10.30
2019-03-22T03:39:10.910Z,10.20
2019-03-22T03:41:41.528Z,10.20
2019-03-22T03:44:12.206Z,10.20
2019-03-22T03:46:42.817Z,10.20
2019-03-22T03:49:13.610Z,10.20
2019-03-22T03:51:44.465Z,10.20
2019-03-22T03:54:15.332Z,10.20
2019-03-22T03:56:45.893Z,10.20
2019-03-22T03:59:16.586Z,10.20
2019-03-22T04:01:54.954Z,10.20
2019-03-22T04:04:27.833Z,10.20
2019-03-22T04:06:58.594Z,10.10
2019-03-22T04:09:37.309Z,10.10
2019-03-22T04:12:20.451Z,10.20
2019-03-22T04:14:52.269Z,10.10
2019-03-22T04:17:22.880Z,10.10
2019-03-22T04:19:53.700Z,10.10
2019-03-22T04:22:24.405Z,10.10
2019-03-22T04:24:55.086Z,10.10
2019-03-22T04:27:27.698Z,10.10
2019-03-22T04:30:05.706Z,10.10
2019-03-22T04:32:36.663Z,10.10
2019-03-22T04:35:08.146Z,10.10
2019-03-22T04:37:51.540Z,10.10
2019-03-22T04:40:27.850Z,10.10
2019-03-22T04:43:12.200Z,10.10
2019-03-22T04:45:43.160Z,10.10
2019-03-22T04:48:28.177Z,10.10
2019-03-22T04:51:01.704Z,10.10
2019-03-22T04:53:37.884Z,10.10
2019-03-22T04:56:17.112Z,10.00
2019-03-22T04:58:57.130Z,10.00
2019-03-22T05:01:29.130Z,10.00
2019-03-22T05:04:00.115Z,10.00
2019-03-22T05:06:32.824Z,10.00
2019-03-22T05:09:06.303Z,10.00
2019-03-22T05:11:37.405Z,10.00
2019-03-22T05:14:08.515Z,10.00
2019-03-22T05:16:51.344Z,9.90
2019-03-22T05:19:49.505Z,9.90
2019-03-22T05:22:22.263Z,9.90
2019-03-22T05:24:54.786Z,9.90
2019-03-22T05:27:26.772Z,9.80
2019-03-22T05:29:59.375Z,9.80
2019-03-22T05:32:34.848Z,9.90
2019-03-22T05:35:07.445Z,9.80
2019-03-22T05:37:38.248Z,9.80
2019-03-22T05:40:21.315Z,9.80
2019-03-22T05:43:02.284Z,9.80
2019-03-22T05:45:33.344Z,9.80
2019-03-22T05:48:04.111Z,9.80
2019-03-22T05:50:34.754Z,9.80
2019-03-22T05:53:05.872Z,9.80
2019-03-22T05:55:36.527Z,9.90
2019-03-22T05:58:08.827Z,9.90
2019-03-22T06:00:45.637Z,9.90
2019-03-22T06:03:21.520Z,9.90
2019-03-22T06:06:04.453Z,9.90
2019-03-22T06:08:35.207Z,9.90
2019-03-22T06:11:06.530Z,9.90
2019-03-22T06:13:37.203Z,10.00
2019-03-22T06:16:17.998Z,10.00
2019-03-22T06:18:50.498Z,10.00
2019-03-22T06:21:33.600Z,10.00
2019-03-22T06:24:04.546Z,10.00
2019-03-22T06:26:50.206Z,10.00
2019-03-22T06:29:20.848Z,10.00
2019-03-22T06:31:51.524Z,10.00
2019-03-22T06:34:22.224Z,10.00
2019-03-22T06:37:09.620Z,10.00
2019-03-22T06:39:52.562Z,10.00
2019-03-22T06:42:34.453Z,10.00
2019-03-22T06:45:14.531Z,10.00
2019-03-22T06:47:45.531Z,10.00
2019-03-22T06:50:16.405Z,10.10
2019-03-22T06:52:52.199Z,10.10
2019-03-22T06:55:27.140Z,10.20
2019-03-22T06:57:58.440Z,10.20
2019-03-22T07:00:42.853Z,10.30
2019-03-22T07:03:31.860Z,10.30
2019-03-22T07:06:16.756Z,10.40
2019-03-22T07:09:18.839Z,10.40
2019-03-22T07:12:00.371Z,10.50
2019-03-22T07:14:33.252Z,10.50
2019-03-22T07:17:24.147Z,10.60
2019-03-22T07:20:06.980Z,10.60
2019-03-22T07:22:37.733Z,10.60
2019-03-22T07:25:09.393Z,10.60
2019-03-22T07:27:40.212Z,10.60
2019-03-22T07:30:18.727Z,10.60
2019-03-22T07:32:43.752Z,10.70
2019-03-22T07:35:24.959Z,10.70
2019-03-22T07:38:06.740Z,10.70
2019-03-22T07:40:37.464Z,10.70
2019-03-22T07:43:09.686Z,10.70
2019-03-22T07:45:40.318Z,10.60
2019-03-22T07:48:11.152Z,10.70
2019-03-22T07:50:48.162Z,10.70
2019-03-22T07:53:18.765Z,10.70
2019-03-22T07:55:49.591Z,10.70
2019-03-22T07:58:30.458Z,10.70
2019-03-22T08:01:01.176Z,10.80
2019-03-22T08:03:31.855Z,10.80
2019-03-22T08:06:02.650Z,10.80
2019-03-22T08:08:33.578Z,10.90
2019-03-22T08:11:04.477Z,11.00
2019-03-22T08:13:35.655Z,11.10
2019-03-22T08:16:06.586Z,11.20
2019-03-22T08:18:37.524Z,11.40
2019-03-22T08:21:08.256Z,11.50
2019-03-22T08:23:38.888Z,11.60
2019-03-22T08:26:09.745Z,11.70
2019-03-22T08:28:42.576Z,11.80
2019-03-22T08:31:13.313Z,11.90
2019-03-22T08:34:05.264Z,12.00
2019-03-22T08:36:49.691Z,12.10
2019-03-22T08:39:34.323Z,12.20
2019-03-22T08:42:17.178Z,12.30
2019-03-22T08:52:52.648Z,12.50
2019-03-22T08:55:23.610Z,12.50
2019-03-22T08:57:54.337Z,12.60
2019-03-22T09:00:38.283Z,12.60
2019-03-22T09:02:57.557Z,12.60
2019-03-22T09:05:28.372Z,12.60
2019-03-22T09:07:59.286Z,12.60
2019-03-22T09:10:30.024Z,12.70
2019-03-22T09:13:00.896Z,12.70
2019-03-22T09:15:41.163Z,12.90
2019-03-22T09:18:04.101Z,13.10
2019-03-22T09:20:34.923Z,13.10
2019-03-22T09:23:06.637Z,13.10
2019-03-22T09:25:37.377Z,13.00
2019-03-22T09:28:10.258Z,12.90
2019-03-22T09:30:40.581Z,13.00
2019-03-22T09:33:13.398Z,13.10
2019-03-22T09:35:43.719Z,13.20
2019-03-22T09:38:14.327Z,13.30
2019-03-22T09:40:45.127Z,13.40
2019-03-22T09:43:15.720Z,13.50
2019-03-22T09:45:46.409Z,13.60
2019-03-22T09:48:16.953Z,13.80
2019-03-22T09:50:47.709Z,14.00
2019-03-22T09:53:18.535Z,14.20
2019-03-22T09:55:49.318Z,14.10
2019-03-22T09:58:21.047Z,14.20
2019-03-22T10:00:51.890Z,14.30
2019-03-22T10:03:22.910Z,14.60
2019-03-22T10:05:53.783Z,14.90
2019-03-22T10:08:24.593Z,15.10
2019-03-22T10:10:55.381Z,15.10
2019-03-22T10:13:26.468Z,15.10
2019-03-22T10:15:57.365Z,15.00
2019-03-22T10:18:28.210Z,15.00
2019-03-22T10:20:59.045Z,15.00
2019-03-22T10:23:34.088Z,15.30
2019-03-22T10:26:04.679Z,16.00
2019-03-22T10:28:35.386Z,17.40
2019-03-22T10:31:10.153Z,18.60
2019-03-22T10:33:41.109Z,19.40
2019-03-22T10:36:11.763Z,19.20
2019-03-22T10:38:42.384Z,18.70
2019-03-22T10:41:13.432Z,18.20
2019-03-22T10:43:44.029Z,17.60
2019-03-22T10:46:14.597Z,17.10
2019-03-22T10:48:45.337Z,16.70
2019-03-22T10:51:15.855Z,16.40
2019-03-22T10:53:46.537Z,16.80
2019-03-22T10:56:17.065Z,18.80
2019-03-22T10:58:47.624Z,19.70
2019-03-22T11:01:20.144Z,19.50
2019-03-22T11:03:50.699Z,19.00
2019-03-22T11:06:26.314Z,18.30
2019-03-22T11:08:55.455Z,17.70
2019-03-22T11:11:26.274Z,17.40
2019-03-22T11:13:57.004Z,17.80
2019-03-22T11:16:27.621Z,20.30
2019-03-22T11:18:58.358Z,23.00
2019-03-22T11:21:29.070Z,24.10
2019-03-22T11:23:59.719Z,23.80
2019-03-22T11:26:30.344Z,22.70
2019-03-22T11:29:00.945Z,21.70
2019-03-22T11:31:39.506Z,20.70
2019-03-22T11:34:04.201Z,19.90
2019-03-22T11:36:34.744Z,20.50
2019-03-22T11:39:15.415Z,21.10
2019-03-22T11:41:44.056Z,20.90
2019-03-22T11:44:15.719Z,20.20
2019-03-22T11:46:46.495Z,19.40
2019-03-22T11:49:16.971Z,18.90
2019-03-22T11:51:47.863Z,18.40
2019-03-22T11:54:18.501Z,17.90
2019-03-22T11:56:49.019Z,17.50
2019-03-22T11:59:19.455Z,18.20
2019-03-22T12:01:50.076Z,18.80
2019-03-22T12:04:21.835Z,19.80
2019-03-22T12:06:52.441Z,20.50
2019-03-22T12:09:23.461Z,20.70
2019-03-22T12:11:53.938Z,20.80
2019-03-22T12:14:24.518Z,20.40
2019-03-22T12:16:56.616Z,20.80
2019-03-22T12:19:27.443Z,21.90
2019-03-22T12:21:58.085Z,22.40
2019-03-22T12:24:28.783Z,22.70
2019-03-22T12:26:59.597Z,22.90
2019-03-22T12:29:30.256Z,22.90
2019-03-22T12:32:00.797Z,22.80
2019-03-22T12:34:31.559Z,22.70
2019-03-22T12:37:02.196Z,22.30
2019-03-22T12:39:32.845Z,21.50
2019-03-22T12:42:03.582Z,20.70
2019-03-22T12:44:34.240Z,20.00
2019-03-22T12:47:04.996Z,19.50
2019-03-22T12:49:35.590Z,18.90
2019-03-22T12:52:06.222Z,18.80
2019-03-22T12:54:36.953Z,19.10
2019-03-22T12:57:07.987Z,19.50
2019-03-22T12:59:38.723Z,19.30
2019-03-22T13:02:09.493Z,19.00
2019-03-22T13:04:40.637Z,18.70
2019-03-22T13:07:11.337Z,18.60
2019-03-22T13:09:41.924Z,18.70
2019-03-22T13:12:14.136Z,18.50
2019-03-22T13:14:44.778Z,18.30
2019-03-22T13:17:15.436Z,18.30
2019-03-22T13:19:47.142Z,18.60
2019-03-22T13:22:18.768Z,18.80
2019-03-22T13:24:49.320Z,19.10
2019-03-22T13:27:19.891Z,19.40
2019-03-22T13:29:50.489Z,19.70
2019-03-22T13:32:21.183Z,20.90
2019-03-22T13:34:51.729Z,22.70
2019-03-22T13:37:22.307Z,22.80
2019-03-22T13:39:52.983Z,22.10
2019-03-22T13:42:25.176Z,21.80
2019-03-22T13:44:55.857Z,21.30
2019-03-22T13:47:26.612Z,21.80
2019-03-22T13:49:57.297Z,22.10
2019-03-22T13:52:27.926Z,22.20
2019-03-22T13:54:58.435Z,22.20
2019-03-22T13:57:30.270Z,22.00
2019-03-22T14:00:00.852Z,21.70
2019-03-22T14:02:31.597Z,21.40
2019-03-22T14:05:02.304Z,21.40
2019-03-22T14:07:32.928Z,21.40
2019-03-22T14:10:03.575Z,21.30
2019-03-22T14:12:37.445Z,21.20
2019-03-22T14:15:08.763Z,20.90
2019-03-22T14:17:39.435Z,20.70
2019-03-22T14:20:11.480Z,20.70
2019-03-22T14:22:42.562Z,20.70
2019-03-22T14:25:13.205Z,20.60
2019-03-22T14:27:45.737Z,20.40
2019-03-22T14:30:16.995Z,20.40
2019-03-22T14:32:47.538Z,20.50
2019-03-22T14:35:18.057Z,20.50
2019-03-22T14:37:48.743Z,20.50
2019-03-22T14:40:19.300Z,20.60
2019-03-22T14:42:49.923Z,20.60
2019-03-22T14:45:20.691Z,20.80
2019-03-22T14:47:51.224Z,20.90
2019-03-22T14:50:21.879Z,21.00
2019-03-22T14:52:53.513Z,21.10
2019-03-22T14:55:25.503Z,21.00
2019-03-22T14:57:56.410Z,20.90
2019-03-22T15:00:26.978Z,20.70
2019-03-22T15:02:57.862Z,20.60
2019-03-22T15:05:28.403Z,20.70
2019-03-22T15:07:59.122Z,20.80
2019-03-22T15:10:29.775Z,20.90
2019-03-22T15:13:00.691Z,21.00
2019-03-22T15:15:46.601Z,21.10
2019-03-22T15:18:36.203Z,21.40
2019-03-22T15:21:23.217Z,22.00
2019-03-22T15:24:12.948Z,22.50
2019-03-22T15:27:04.169Z,22.80
2019-03-22T15:29:43.303Z,22.80
2019-03-22T15:32:32.935Z,23.00
2019-03-22T15:35:22.623Z,22.80
2019-03-22T15:38:06.199Z,22.60
2019-03-22T15:40:37.044Z,22.40
2019-03-22T15:43:07.842Z,22.00
2019-03-22T15:45:38.429Z,21.70
2019-03-22T15:48:09.102Z,21.70
2019-03-22T15:50:39.903Z,21.50
2019-03-22T15:53:10.543Z,21.10
2019-03-22T15:55:41.277Z,20.80
2019-03-22T15:58:11.948Z,20.40
2019-03-22T16:00:42.626Z,20.00
2019-03-22T16:03:13.330Z,19.60
2019-03-22T16:05:45.025Z,19.40
2019-03-22T16:08:16.266Z,19.00
2019-03-22T16:10:48.305Z,18.60
2019-03-22T16:13:23.035Z,18.30
2019-03-22T16:16:04.664Z,18.00
2019-03-22T16:18:41.083Z,17.70
2019-03-22T16:21:22.789Z,17.40
2019-03-22T16:24:03.685Z,17.20
2019-03-22T16:26:35.640Z,16.90
2019-03-22T16:29:09.911Z,16.80
2019-03-22T16:31:41.450Z,16.50
2019-03-22T16:34:13.593Z,16.20
2019-03-22T16:36:45.659Z,16.00
2019-03-22T16:39:22.157Z,15.80
2019-03-22T16:42:10.148Z,15.60
2019-03-22T16:44:41.998Z,15.40
2019-03-22T16:47:12.544Z,15.20
2019-03-22T16:49:47.641Z,15.00
2019-03-22T16:52:18.754Z,14.80
2019-03-22T16:54:52.234Z,14.60
2019-03-22T16:57:23.757Z,14.30
2019-03-22T16:59:54.630Z,14.10
2019-03-22T17:02:36.437Z,13.90
2019-03-22T17:05:15.410Z,13.70
2019-03-22T17:07:59.996Z,13.50
2019-03-22T17:10:44.768Z,13.20
2019-03-22T17:13:17.023Z,13.10
2019-03-22T17:15:54.304Z,12.90
2019-03-22T17:18:33.537Z,12.70
2019-03-22T17:21:10.979Z,12.50
2019-03-22T17:23:43.504Z,12.40
2019-03-22T17:26:14.477Z,12.20
2019-03-22T17:28:46.295Z,12.00
2019-03-22T17:31:22.038Z,11.90
2019-03-22T17:33:53.083Z,11.70
2019-03-22T17:36:23.808Z,11.50
2019-03-22T17:38:54.571Z,11.30
2019-03-22T17:41:25.236Z,11.10
2019-03-22T17:43:56.033Z,10.90
2019-03-22T17:46:29.974Z,10.80
2019-03-22T17:49:00.611Z,10.70
2019-03-22T17:51:36.413Z,10.60
2019-03-22T17:54:15.033Z,10.50
2019-03-22T17:56:57.950Z,10.40
2019-03-22T17:59:43.756Z,10.30
2019-03-22T18:02:21.138Z,10.10
2019-03-22T18:04:59.529Z,10.00
2019-03-22T18:07:36.855Z,9.80
2019-03-22T18:10:14.567Z,9.60
2019-03-22T18:12:53.176Z,9.50
2019-03-22T18:15:38.549Z,9.40
2019-03-22T18:18:17.040Z,9.40
2019-03-22T18:20:50.779Z,9.20
2019-03-22T18:24:08.275Z,9.10
2019-03-22T18:26:43.326Z,9.00
2019-03-22T18:29:13.822Z,8.90
2019-03-22T18:31:44.516Z,8.80
2019-03-22T18:34:15.317Z,8.60
2019-03-22T18:36:46.365Z,8.50
2019-03-22T18:39:16.956Z,8.40
2019-03-22T18:41:47.692Z,8.30
2019-03-22T18:44:18.446Z,8.10
2019-03-22T18:46:49.164Z,8.00
2019-03-22T18:49:19.786Z,7.90
2019-03-22T18:51:50.403Z,7.80
2019-03-22T18:54:20.976Z,7.70
2019-03-22T18:56:52.057Z,7.60
2019-03-22T18:59:22.664Z,7.50
2019-03-22T19:01:53.361Z,7.40
2019-03-22T19:04:24.076Z,7.30
2019-03-22T19:06:54.682Z,7.30
2019-03-22T19:09:47.519Z,7.20
2019-03-22T19:12:39.619Z,7.10
2019-03-22T19:15:19.682Z,7.00
2019-03-22T19:17:55.993Z,6.90
2019-03-22T19:20:37.246Z,6.80
2019-03-22T19:23:14.293Z,6.70
2019-03-22T19:26:01.256Z,6.60
2019-03-22T19:28:45.083Z,6.50
2019-03-22T19:31:18.198Z,6.40
2019-03-22T19:33:55.788Z,6.30
2019-03-22T19:36:27.139Z,6.30
2019-03-22T19:38:59.367Z,6.20
2019-03-22T19:41:37.596Z,6.30
2019-03-22T19:44:35.187Z,6.20
2019-03-22T19:47:13.072Z,6.20
2019-03-22T19:49:48.598Z,6.10
2019-03-22T19:52:30.229Z,6.00
2019-03-22T19:55:22.839Z,5.90
2019-03-22T19:58:10.046Z,5.80
2019-03-22T20:01:09.022Z,5.80
2019-03-22T20:03:43.229Z,5.80
2019-03-22T20:06:24.463Z,5.70
2019-03-22T20:08:59.298Z,5.70
2019-03-22T20:11:34.218Z,5.50
2019-03-22T20:14:06.338Z,5.40
2019-03-22T20:16:39.498Z,5.30
2019-03-22T20:19:11.396Z,5.20
2019-03-22T20:21:44.016Z,5.10
2019-03-22T20:24:15.937Z,5.10
2019-03-22T20:26:46.628Z,5.00
2019-03-22T20:29:28.774Z,5.00
2019-03-22T20:32:13.084Z,4.90
2019-03-22T20:34:46.545Z,4.80
2019-03-22T20:37:24.044Z,4.80
2019-03-22T20:39:59.488Z,4.70
2019-03-22T20:42:34.303Z,4.60
2019-03-22T20:45:23.282Z,4.60
2019-03-22T20:47:50.155Z,4.60
2019-03-22T20:50:35.362Z,4.50
2019-03-22T20:53:06.305Z,4.50
2019-03-22T20:55:37.763Z,4.40
2019-03-22T20:58:25.407Z,4.30
2019-03-22T21:01:10.832Z,4.30
2019-03-22T21:04:02.349Z,4.20
2019-03-22T21:07:03.976Z,4.20
2019-03-22T21:09:42.139Z,4.10
2019-03-22T21:12:23.515Z,4.10
2019-03-22T21:14:59.171Z,4.00
2019-03-22T21:17:41.234Z,4.00
2019-03-22T21:20:26.065Z,4.00
2019-03-22T21:23:01.209Z,3.90
2019-03-22T21:25:38.464Z,3.90
2019-03-22T21:28:16.140Z,3.80
2019-03-22T21:30:49.886Z,3.80
2019-03-22T21:33:20.551Z,3.80
2019-03-22T21:35:51.211Z,3.70
2019-03-22T21:38:36.853Z,3.70
2019-03-22T21:41:16.699Z,3.60
2019-03-22T21:43:48.433Z,3.60
2019-03-22T21:46:20.092Z,3.60
2019-03-22T21:48:51.829Z,3.50
2019-03-22T21:51:35.932Z,3.40
2019-03-22T21:54:07.208Z,3.40
2019-03-22T21:56:38.475Z,3.30
2019-03-22T21:59:12.644Z,3.30
2019-03-22T22:01:44.044Z,3.30
2019-03-22T22:04:15.858Z,3.20
2019-03-22T22:06:47.825Z,3.20
2019-03-22T22:09:18.567Z,3.10
2019-03-22T22:11:49.258Z,3.10
2019-03-22T22:14:20.753Z,3.00
2019-03-22T22:16:51.425Z,2.90
2019-03-22T22:19:21.957Z,2.90
2019-03-22T22:21:52.461Z,2.90
2019-03-22T22:24:22.985Z,2.80
2019-03-22T22:26:53.626Z,2.80
2019-03-22T22:29:24.194Z,2.70
2019-03-22T22:31:55.848Z,2.70
2019-03-22T22:34:26.349Z,2.60
2019-03-22T22:36:56.893Z,2.60
2019-03-22T22:39:27.518Z,2.60
2019-03-22T22:41:58.153Z,2.50
2019-03-22T22:44:28.885Z,2.50
2019-03-22T22:46:59.426Z,2.40
2019-03-22T22:49:30.035Z,2.40
2019-03-22T22:52:00.715Z,2.30
2019-03-22T22:54:31.570Z,2.30
2019-03-22T22:57:03.834Z,2.30
2019-03-22T22:59:34.442Z,2.20
2019-03-22T23:02:05.170Z,2.20
2019-03-22T23:04:35.847Z,2.20
2019-03-22T23:07:06.551Z,2.20
2019-03-22T23:09:37.132Z,2.10
2019-03-22T23:12:07.829Z,2.10
2019-03-22T23:14:38.602Z,2.00
2019-03-22T23:17:09.222Z,2.00
2019-03-22T23:19:39.794Z,2.00
2019-03-22T23:22:13.384Z,1.90
2019-03-22T23:24:45.865Z,1.90
2019-03-22T23:27:16.585Z,1.90
2019-03-22T23:29:47.221Z,1.80
2019-03-22T23:32:18.886Z,1.80
2019-03-22T23:34:58.650Z,1.80
2019-03-22T23:37:23.144Z,1.80
2019-03-22T23:39:53.741Z,1.80
2019-03-22T23:42:24.545Z,1.70
2019-03-22T23:44:56.274Z,1.70
2019-03-22T23:47:26.992Z,1.60
2019-03-22T23:49:57.613Z,1.60
2019-03-22T23:52:28.412Z,1.50
2019-03-22T23:54:58.890Z,1.50
2019-03-22T23:57:29.464Z,1.40
2019-03-22T23:59:59.948Z,1.40
